Time;durP1;ratioP1;P1;durP2;ratioP2;P2;SDS_P1;SDS_P2;PMS_P1;PMS_P2;Temp;Humidity;BMP_temperature;BMP_pressure;BME280_temperature;BME280_humidity;BME280_pressure;Samples;Min_cycle;Max_cycle;Signal;HPM_P1;HPM_P2
2023/04/01 00:01:44;;;;;;;;;;;11.90;99.90;;;;;;2616380;54;19953;-61
2023/04/01 00:04:14;;;;;;;;;;;11.90;99.90;;;;;;2617096;54;19950;-62
2023/04/01 00:06:43;;;;;;;;;;;11.90;99.90;;;;;;2617810;54;19946;-63
2023/04/01 00:09:13;;;;;;;;;;;11.90;99.90;;;;;;2616795;54;19942;-62
2023/04/01 00:11:43;;;;;;;;;;;11.90;99.90;;;;;;2617290;47;19954;-62
2023/04/01 00:14:15;;;;;;;;;;;11.80;99.90;;;;;;2618681;54;19990;-62
2023/04/01 00:16:44;;;;;;;;;;;11.80;99.90;;;;;;2622580;54;19950;-63
2023/04/01 00:19:14;;;;;;;;;;;11.90;99.90;;;;;;2622572;54;19954;-63
2023/04/01 00:21:44;;;;;;;;;;;11.80;99.90;;;;;;2620325;46;19947;-62
2023/04/01 00:24:14;;;;;;;;;;;11.80;99.90;;;;;;2617496;47;19943;-63
2023/04/01 00:26:44;;;;;;;;;;;11.80;99.90;;;;;;2617159;54;19999;-62
2023/04/01 00:29:16;;;;;;;;;;;11.70;99.90;;;;;;2617426;47;19946;-63
2023/04/01 00:31:46;;;;;;;;;;;11.80;99.90;;;;;;2616107;54;20038;-63
2023/04/01 00:34:15;;;;;;;;;;;11.80;99.90;;;;;;2617200;54;19957;-62
2023/04/01 00:36:45;;;;;;;;;;;11.80;99.90;;;;;;2616946;54;19950;-63
2023/04/01 00:39:15;;;;;;;;;;;11.80;99.90;;;;;;2617233;54;19973;-62
2023/04/01 00:41:44;;;;;;;;;;;11.70;99.90;;;;;;2617164;39;20371;-62
2023/04/01 00:44:19;;;;;;;;;;;11.80;99.90;;;;;;2618798;54;19946;-62
2023/04/01 00:46:49;;;;;;;;;;;11.70;99.90;;;;;;2621866;39;20490;-63
2023/04/01 00:49:20;;;;;;;;;;;11.70;99.90;;;;;;2619640;48;19942;-63
2023/04/01 00:51:52;;;;;;;;;;;11.70;99.90;;;;;;2617506;54;19956;-62
2023/04/01 00:54:23;;;;;;;;;;;11.70;99.90;;;;;;2617387;54;19946;-62
2023/04/01 00:56:55;;;;;;;;;;;11.70;99.90;;;;;;2616748;54;20424;-62
2023/04/01 00:59:30;;;;;;;;;;;11.70;99.90;;;;;;2616954;54;19973;-62
2023/04/01 01:02:00;;;;;;;;;;;11.60;99.90;;;;;;2616972;54;19950;-62
2023/04/01 01:04:31;;;;;;;;;;;11.70;99.90;;;;;;2617954;39;20442;-61
2023/04/01 01:07:05;;;;;;;;;;;11.60;99.90;;;;;;2622152;54;19946;-62
2023/04/01 01:09:43;;;;;;;;;;;11.60;99.90;;;;;;2618846;39;20344;-62
2023/04/01 01:12:15;;;;;;;;;;;11.60;99.90;;;;;;2616478;54;19954;-62
2023/04/01 01:14:55;;;;;;;;;;;11.60;99.90;;;;;;2616943;54;19954;-62
2023/04/01 01:17:31;;;;;;;;;;;11.60;99.90;;;;;;2616786;54;19977;-61
2023/04/01 01:20:16;;;;;;;;;;;11.60;99.90;;;;;;2619237;47;19947;-61
2023/04/01 01:23:01;;;;;;;;;;;11.60;99.90;;;;;;2616815;47;19962;-63
2023/04/01 01:25:34;;;;;;;;;;;11.60;99.90;;;;;;2617015;54;19953;-62
2023/04/01 01:28:25;;;;;;;;;;;11.60;99.90;;;;;;2618443;54;20042;-62
2023/04/01 01:31:00;;;;;;;;;;;11.60;99.90;;;;;;2616785;54;20462;-62
2023/04/01 01:33:38;;;;;;;;;;;11.50;99.90;;;;;;2616353;54;20016;-62
2023/04/01 01:36:12;;;;;;;;;;;11.50;99.90;;;;;;2616814;39;20384;-63
2023/04/01 01:38:42;;;;;;;;;;;11.50;99.90;;;;;;2617051;54;19998;-63
2023/04/01 01:41:13;;;;;;;;;;;11.50;99.90;;;;;;2615897;54;19954;-62
2023/04/01 01:43:43;;;;;;;;;;;11.50;99.90;;;;;;2616235;54;20070;-61
2023/04/01 01:46:14;;;;;;;;;;;11.50;99.90;;;;;;2616698;39;20367;-61
2023/04/01 01:48:45;;;;;;;;;;;11.50;99.90;;;;;;2616417;54;19995;-61
2023/04/01 01:51:18;;;;;;;;;;;11.50;99.90;;;;;;2618471;54;19946;-61
2023/04/01 01:53:47;;;;;;;;;;;11.50;99.90;;;;;;2619578;54;19951;-61
2023/04/01 01:56:18;;;;;;;;;;;11.60;99.90;;;;;;2621746;54;19939;-62
2023/04/01 01:58:50;;;;;;;;;;;11.60;99.90;;;;;;2627757;54;20499;-64
2023/04/01 02:01:21;;;;;;;;;;;11.50;99.90;;;;;;2627977;54;19951;-64
2023/04/01 02:03:52;;;;;;;;;;;11.50;99.90;;;;;;2623841;54;19947;-62
2023/04/01 02:06:25;;;;;;;;;;;11.40;99.90;;;;;;2624089;54;19930;-62
2023/04/01 02:08:57;;;;;;;;;;;11.40;99.90;;;;;;2627170;54;19983;-62
2023/04/01 02:11:29;;;;;;;;;;;11.40;99.90;;;;;;2627693;54;19935;-61
2023/04/01 02:14:03;;;;;;;;;;;11.40;99.90;;;;;;2627502;47;19942;-61
2023/04/01 02:16:36;;;;;;;;;;;11.40;99.90;;;;;;2621994;54;19946;-61
2023/04/01 02:19:08;;;;;;;;;;;11.40;99.90;;;;;;2620452;52;19998;-62
2023/04/01 02:21:41;;;;;;;;;;;11.40;99.90;;;;;;2616782;54;20002;-62
2023/04/01 02:24:14;;;;;;;;;;;11.40;99.90;;;;;;2616414;54;20003;-62
2023/04/01 02:26:44;;;;;;;;;;;11.40;99.90;;;;;;2616071;54;19939;-62
2023/04/01 02:29:14;;;;;;;;;;;11.40;99.90;;;;;;2617606;39;20347;-61
2023/04/01 02:31:44;;;;;;;;;;;11.40;99.90;;;;;;2616891;54;19947;-62
2023/04/01 02:34:14;;;;;;;;;;;11.40;99.90;;;;;;2616490;54;20033;-61
2023/04/01 02:36:47;;;;;;;;;;;11.40;99.90;;;;;;2615561;47;20003;-61
2023/04/01 02:39:16;;;;;;;;;;;11.40;99.90;;;;;;2617016;46;19980;-61
2023/04/01 02:41:47;;;;;;;;;;;11.40;99.90;;;;;;2616391;54;20879;-61
2023/04/01 02:44:17;;;;;;;;;;;11.40;99.90;;;;;;2617541;47;19990;-62
2023/04/01 02:46:47;;;;;;;;;;;11.40;99.90;;;;;;2618535;39;20605;-61
2023/04/01 02:49:16;;;;;;;;;;;11.40;99.90;;;;;;2618394;54;19963;-62
2023/04/01 02:51:48;;;;;;;;;;;11.40;99.90;;;;;;2616462;54;19958;-62
2023/04/01 02:54:18;;;;;;;;;;;11.40;99.90;;;;;;2622524;54;19946;-62
2023/04/01 02:56:48;;;;;;;;;;;11.40;99.90;;;;;;2626178;54;19950;-64
2023/04/01 02:59:17;;;;;;;;;;;11.40;99.90;;;;;;2625041;54;19947;-61
2023/04/01 03:01:47;;;;;;;;;;;11.30;99.90;;;;;;2620236;46;20026;-61
2023/04/01 03:04:17;;;;;;;;;;;11.30;99.90;;;;;;2617732;39;20032;-61
2023/04/01 03:06:49;;;;;;;;;;;11.30;99.90;;;;;;2617059;47;20445;-61
2023/04/01 03:09:19;;;;;;;;;;;11.30;99.90;;;;;;2616493;54;20486;-62
2023/04/01 03:11:48;;;;;;;;;;;10.50;99.90;;;;;;2622055;47;19939;-62
2023/04/01 03:14:18;;;;;;;;;;;11.20;99.90;;;;;;2618264;47;19954;-61
2023/04/01 03:16:48;;;;;;;;;;;11.20;99.90;;;;;;2615744;54;19946;-62
2023/04/01 03:19:17;;;;;;;;;;;11.20;99.90;;;;;;2617091;54;19971;-61
2023/04/01 03:21:49;;;;;;;;;;;11.20;99.90;;;;;;2625053;54;19923;-62
2023/04/01 03:24:19;;;;;;;;;;;11.10;99.90;;;;;;2626092;54;19934;-62
2023/04/01 03:26:49;;;;;;;;;;;11.20;99.90;;;;;;2617378;54;19958;-61
2023/04/01 03:29:18;;;;;;;;;;;11.20;99.90;;;;;;2620206;47;19950;-61
2023/04/01 03:31:48;;;;;;;;;;;11.20;99.90;;;;;;2621948;54;19983;-61
2023/04/01 03:34:17;;;;;;;;;;;11.20;99.90;;;;;;2619637;47;20646;-61
2023/04/01 03:36:50;;;;;;;;;;;11.10;99.90;;;;;;2618264;46;20015;-60
2023/04/01 03:39:20;;;;;;;;;;;11.10;99.90;;;;;;2616774;54;19958;-62
2023/04/01 03:41:50;;;;;;;;;;;11.10;99.90;;;;;;2616932;54;19966;-62
2023/04/01 03:44:19;;;;;;;;;;;11.10;99.90;;;;;;2616375;47;20008;-61
2023/04/01 03:46:49;;;;;;;;;;;11.10;99.90;;;;;;2616918;54;19950;-61
2023/04/01 03:49:19;;;;;;;;;;;11.10;99.90;;;;;;2616959;54;20479;-61
2023/04/01 03:51:51;;;;;;;;;;;11.10;99.90;;;;;;2623102;54;19946;-61
2023/04/01 03:54:21;;;;;;;;;;;11.10;99.90;;;;;;2619071;47;20016;-61
2023/04/01 03:56:51;;;;;;;;;;;11.10;99.90;;;;;;2616532;47;19954;-62
2023/04/01 03:59:20;;;;;;;;;;;11.10;99.90;;;;;;2616645;54;19958;-62
2023/04/01 04:01:50;;;;;;;;;;;11.20;99.90;;;;;;2616315;54;19946;-62
2023/04/01 04:04:20;;;;;;;;;;;11.10;99.90;;;;;;2615860;54;19973;-62
2023/04/01 04:06:52;;;;;;;;;;;11.10;99.90;;;;;;2617691;47;19953;-62
2023/04/01 04:09:21;;;;;;;;;;;11.10;99.90;;;;;;2618066;54;19963;-61
2023/04/01 04:11:51;;;;;;;;;;;11.10;99.90;;;;;;2617954;47;19987;-61
2023/04/01 04:14:21;;;;;;;;;;;11.10;99.90;;;;;;2616934;47;19942;-61
2023/04/01 04:16:51;;;;;;;;;;;11.10;99.90;;;;;;2615816;47;19995;-61
2023/04/01 04:19:20;;;;;;;;;;;11.10;99.90;;;;;;2617140;54;19953;-61
2023/04/01 04:21:53;;;;;;;;;;;11.10;99.90;;;;;;2616335;54;19973;-61
2023/04/01 04:24:22;;;;;;;;;;;11.10;99.90;;;;;;2616808;54;19981;-61
2023/04/01 04:26:52;;;;;;;;;;;11.00;99.90;;;;;;2623847;47;19963;-61
2023/04/01 04:29:22;;;;;;;;;;;11.00;99.90;;;;;;2628814;54;19942;-61
2023/04/01 04:31:52;;;;;;;;;;;11.00;99.90;;;;;;2628666;54;19935;-63
2023/04/01 04:34:22;;;;;;;;;;;11.00;99.90;;;;;;2622990;54;20043;-61
2023/04/01 04:36:54;;;;;;;;;;;11.00;99.90;;;;;;2620676;54;19950;-61
2023/04/01 04:39:23;;;;;;;;;;;11.00;99.90;;;;;;2618824;47;19946;-62
2023/04/01 04:41:53;;;;;;;;;;;11.00;99.90;;;;;;2617083;54;19994;-63
2023/04/01 04:44:23;;;;;;;;;;;11.00;99.90;;;;;;2624952;54;19963;-63
2023/04/01 04:46:52;;;;;;;;;;;11.00;99.90;;;;;;2628500;54;19962;-63
2023/04/01 04:49:23;;;;;;;;;;;11.00;99.90;;;;;;2618017;54;19947;-62
2023/04/01 04:51:56;;;;;;;;;;;11.00;99.90;;;;;;2619542;54;19951;-61
2023/04/01 04:54:25;;;;;;;;;;;11.00;99.90;;;;;;2622293;54;19947;-61
2023/04/01 04:56:55;;;;;;;;;;;11.00;99.90;;;;;;2621997;39;20343;-61
2023/04/01 04:59:24;;;;;;;;;;;11.00;99.90;;;;;;2621818;54;19946;-60
2023/04/01 05:01:54;;;;;;;;;;;11.00;99.90;;;;;;2621131;54;19947;-61
2023/04/01 05:04:24;;;;;;;;;;;11.00;99.90;;;;;;2619571;54;19998;-61
2023/04/01 05:06:56;;;;;;;;;;;11.00;99.90;;;;;;2617397;54;20708;-61
2023/04/01 05:09:26;;;;;;;;;;;11.00;99.90;;;;;;2619647;47;19958;-61
2023/04/01 05:11:55;;;;;;;;;;;11.00;99.90;;;;;;2617087;54;20050;-61
2023/04/01 05:14:25;;;;;;;;;;;11.00;99.90;;;;;;2616976;47;19953;-61
2023/04/01 05:16:55;;;;;;;;;;;11.00;99.90;;;;;;2617055;54;19954;-61
2023/04/01 05:19:24;;;;;;;;;;;11.00;99.90;;;;;;2617523;47;20050;-61
2023/04/01 05:21:57;;;;;;;;;;;11.10;99.90;;;;;;2616131;54;19959;-61
2023/04/01 05:24:26;;;;;;;;;;;11.00;99.90;;;;;;2617570;54;20460;-61
2023/04/01 05:26:57;;;;;;;;;;;11.00;99.90;;;;;;2617396;47;19950;-61
2023/04/01 05:29:27;;;;;;;;;;;10.90;99.90;;;;;;2617525;54;19954;-61
2023/04/01 05:31:56;;;;;;;;;;;10.90;99.90;;;;;;2617224;39;20100;-61
2023/04/01 05:34:26;;;;;;;;;;;11.00;99.90;;;;;;2616831;54;19950;-61
2023/04/01 05:36:58;;;;;;;;;;;10.90;99.90;;;;;;2618788;54;19938;-62
2023/04/01 05:39:28;;;;;;;;;;;10.90;99.90;;;;;;2617383;54;19962;-61
2023/04/01 05:41:57;;;;;;;;;;;10.90;99.90;;;;;;2616740;47;19993;-61
2023/04/01 05:44:27;;;;;;;;;;;11.00;99.90;;;;;;2617403;54;19995;-62
2023/04/01 05:46:57;;;;;;;;;;;11.00;99.90;;;;;;2616809;54;20015;-61
2023/04/01 05:49:26;;;;;;;;;;;10.90;99.90;;;;;;2617193;54;20002;-62
2023/04/01 05:51:59;;;;;;;;;;;10.90;99.90;;;;;;2617106;54;19973;-62
2023/04/01 05:54:29;;;;;;;;;;;10.90;99.90;;;;;;2616263;54;19987;-62
2023/04/01 05:56:59;;;;;;;;;;;10.90;99.90;;;;;;2616057;51;19951;-62
2023/04/01 05:59:30;;;;;;;;;;;10.90;99.90;;;;;;2617077;54;19950;-62
2023/04/01 06:02:01;;;;;;;;;;;10.90;99.90;;;;;;2617193;54;19950;-62
2023/04/01 06:04:35;;;;;;;;;;;10.90;99.90;;;;;;2616364;54;19970;-60
2023/04/01 06:07:13;;;;;;;;;;;10.90;99.90;;;;;;2624858;54;19950;-62
2023/04/01 06:09:43;;;;;;;;;;;10.90;99.90;;;;;;2627159;54;19946;-64
2023/04/01 06:12:19;;;;;;;;;;;10.90;99.90;;;;;;2621402;54;19950;-65
2023/04/01 06:14:54;;;;;;;;;;;10.90;99.90;;;;;;2624884;54;19935;-64
2023/04/01 06:17:28;;;;;;;;;;;10.90;99.90;;;;;;2621720;54;19958;-64
2023/04/01 06:20:00;;;;;;;;;;;11.00;99.90;;;;;;2622107;47;19947;-64
2023/04/01 06:22:42;;;;;;;;;;;11.00;99.90;;;;;;2622864;54;19950;-63
2023/04/01 06:25:17;;;;;;;;;;;11.00;99.90;;;;;;2622484;54;19978;-64
2023/04/01 06:27:52;;;;;;;;;;;11.00;99.90;;;;;;2624548;54;20502;-65
2023/04/01 06:30:32;;;;;;;;;;;10.90;99.90;;;;;;2621762;54;19957;-65
2023/04/01 06:33:11;;;;;;;;;;;10.90;99.90;;;;;;2619388;39;20368;-65
2023/04/01 06:35:46;;;;;;;;;;;10.90;99.90;;;;;;2619536;54;19939;-66
2023/04/01 06:38:31;;;;;;;;;;;11.00;99.90;;;;;;2618681;39;20454;-65
2023/04/01 06:41:12;;;;;;;;;;;10.90;99.90;;;;;;2616014;54;19942;-65
2023/04/01 06:43:46;;;;;;;;;;;10.90;99.90;;;;;;2616710;54;19994;-67
2023/04/01 06:46:22;;;;;;;;;;;10.90;99.90;;;;;;2616786;47;19954;-66
2023/04/01 06:49:06;;;;;;;;;;;10.90;99.90;;;;;;2616776;54;19954;-66
2023/04/01 06:51:40;;;;;;;;;;;10.90;99.90;;;;;;2617620;47;20616;-66
2023/04/01 06:54:13;;;;;;;;;;;10.90;99.90;;;;;;2616789;54;19957;-66
2023/04/01 06:56:46;;;;;;;;;;;10.90;99.90;;;;;;2616844;47;20539;-66
2023/04/01 06:59:17;;;;;;;;;;;10.80;99.90;;;;;;2614208;54;19947;-66
2023/04/01 07:01:49;;;;;;;;;;;10.90;99.90;;;;;;2617104;54;19947;-65
2023/04/01 07:04:21;;;;;;;;;;;10.80;99.90;;;;;;2617234;54;19934;-64
2023/04/01 07:06:53;;;;;;;;;;;10.90;99.90;;;;;;2618099;54;19942;-65
2023/04/01 07:09:24;;;;;;;;;;;10.90;99.90;;;;;;2618209;54;19943;-65
2023/04/01 07:11:59;;;;;;;;;;;10.90;99.90;;;;;;2617763;54;20500;-66
2023/04/01 07:14:31;;;;;;;;;;;10.90;99.90;;;;;;2616711;39;21565;-66
2023/04/01 07:17:02;;;;;;;;;;;10.90;99.90;;;;;;2615101;47;19954;-66
2023/04/01 07:19:35;;;;;;;;;;;10.90;99.90;;;;;;2616498;54;19975;-66
2023/04/01 07:22:07;;;;;;;;;;;10.90;99.90;;;;;;2617810;54;20459;-65
2023/04/01 07:24:38;;;;;;;;;;;10.90;99.90;;;;;;2617431;54;19946;-67
2023/04/01 07:27:11;;;;;;;;;;;10.90;99.90;;;;;;2617126;54;19935;-66
2023/04/01 07:29:41;;;;;;;;;;;10.90;99.90;;;;;;2622550;54;19953;-67
2023/04/01 07:32:21;;;;;;;;;;;11.00;99.90;;;;;;2627622;47;19950;-66
2023/04/01 07:34:57;;;;;;;;;;;11.00;99.90;;;;;;2619544;54;19957;-66
2023/04/01 07:37:31;;;;;;;;;;;11.10;99.90;;;;;;2617650;31;20465;-66
2023/04/01 07:40:04;;;;;;;;;;;11.20;99.90;;;;;;2617563;54;19947;-67
2023/04/01 07:42:40;;;;;;;;;;;11.20;99.90;;;;;;2616621;54;19951;-66
2023/04/01 07:45:14;;;;;;;;;;;11.30;99.90;;;;;;2616645;47;19945;-66
2023/04/01 07:47:48;;;;;;;;;;;11.30;99.90;;;;;;2616874;47;19946;-67
2023/04/01 07:50:23;;;;;;;;;;;11.40;99.90;;;;;;2619028;54;20561;-65
2023/04/01 07:52:58;;;;;;;;;;;11.40;99.90;;;;;;2619259;54;19953;-65
2023/04/01 07:55:30;;;;;;;;;;;11.50;99.90;;;;;;2618519;54;19994;-68
2023/04/01 07:58:06;;;;;;;;;;;11.50;99.90;;;;;;2619260;54;20047;-65
2023/04/01 08:00:39;;;;;;;;;;;11.40;99.90;;;;;;2617722;54;20061;-66
2023/04/01 08:03:19;;;;;;;;;;;11.40;99.90;;;;;;2617018;46;19943;-68
2023/04/01 08:05:53;;;;;;;;;;;11.40;99.90;;;;;;2619464;54;19947;-69
2023/04/01 08:08:30;;;;;;;;;;;11.40;99.90;;;;;;2620476;54;19946;-67
2023/04/01 08:11:02;;;;;;;;;;;11.30;99.90;;;;;;2619262;54;19950;-68
2023/04/01 08:13:39;;;;;;;;;;;11.30;99.90;;;;;;2618633;54;19950;-67
2023/04/01 08:16:13;;;;;;;;;;;11.30;99.90;;;;;;2617302;54;19958;-67
2023/04/01 08:18:48;;;;;;;;;;;11.30;99.90;;;;;;2617276;54;20057;-67
2023/04/01 08:21:21;;;;;;;;;;;11.30;99.90;;;;;;2618054;54;19946;-67
2023/04/01 08:23:52;;;;;;;;;;;11.30;99.90;;;;;;2616606;54;19946;-68
2023/04/01 08:26:26;;;;;;;;;;;11.30;99.90;;;;;;2617119;47;19951;-66
2023/04/01 08:29:02;;;;;;;;;;;11.30;99.90;;;;;;2618451;54;19947;-66
2023/04/01 08:31:34;;;;;;;;;;;11.40;99.90;;;;;;2617375;47;19946;-66
2023/04/01 08:34:05;;;;;;;;;;;11.40;99.90;;;;;;2617913;47;19946;-66
2023/04/01 08:36:36;;;;;;;;;;;11.40;99.90;;;;;;2617571;47;19946;-66
2023/04/01 08:39:10;;;;;;;;;;;11.40;99.90;;;;;;2617785;54;19946;-66
2023/04/01 08:41:49;;;;;;;;;;;11.40;99.90;;;;;;2617229;54;19954;-68
2023/04/01 08:44:35;;;;;;;;;;;11.40;99.90;;;;;;2617909;47;19943;-68
2023/04/01 08:47:19;;;;;;;;;;;11.50;99.90;;;;;;2618165;47;19947;-66
2023/04/01 08:49:59;;;;;;;;;;;11.40;99.90;;;;;;2617718;54;19977;-73
2023/04/01 08:52:34;;;;;;;;;;;11.50;99.90;;;;;;2620477;54;19954;-53
2023/04/01 08:55:17;;;;;;;;;;;11.50;99.90;;;;;;2626201;54;19954;-65
2023/04/01 08:57:51;;;;;;;;;;;11.50;99.90;;;;;;2626012;39;20362;-67
2023/04/01 09:00:28;;;;;;;;;;;11.50;99.90;;;;;;2620941;54;20061;-67
2023/04/01 09:03:12;;;;;;;;;;;11.50;99.90;;;;;;2617213;47;20054;-68
2023/04/01 09:05:50;;;;;;;;;;;11.50;99.90;;;;;;2620090;54;19968;-68
2023/04/01 09:08:28;;;;;;;;;;;11.50;99.90;;;;;;2618159;54;19942;-68
2023/04/01 09:11:08;;;;;;;;;;;11.60;99.90;;;;;;2616623;54;19951;-68
2023/04/01 09:14:02;;;;;;;;;;;11.60;99.90;;;;;;2617237;47;19977;-68
2023/04/01 09:16:49;;;;;;;;;;;11.60;99.90;;;;;;2615843;54;19934;-68
2023/04/01 09:19:29;;;;;;;;;;;11.60;99.90;;;;;;2616324;54;19952;-68
2023/04/01 09:22:12;;;;;;;;;;;11.70;99.90;;;;;;2617787;54;19950;-67
2023/04/01 09:24:50;;;;;;;;;;;11.70;99.90;;;;;;2617341;47;19946;-68
2023/04/01 09:27:28;;;;;;;;;;;11.70;99.90;;;;;;2617107;54;19958;-68
2023/04/01 09:30:19;;;;;;;;;;;11.80;99.90;;;;;;2617365;54;19951;-68
2023/04/01 09:32:58;;;;;;;;;;;11.80;99.90;;;;;;2617811;54;19947;-68
2023/04/01 09:35:34;;;;;;;;;;;11.80;99.90;;;;;;2617036;54;20473;-68
2023/04/01 09:38:16;;;;;;;;;;;11.90;99.90;;;;;;2616891;47;20019;-68
2023/04/01 09:40:50;;;;;;;;;;;11.80;99.90;;;;;;2617530;54;19935;-68
2023/04/01 09:43:28;;;;;;;;;;;11.80;99.90;;;;;;2615588;47;19965;-68
2023/04/01 09:46:13;;;;;;;;;;;11.90;99.90;;;;;;2616666;54;19973;-67
2023/04/01 09:48:58;;;;;;;;;;;12.00;99.90;;;;;;2615364;46;19951;-67
2023/04/01 09:51:33;;;;;;;;;;;12.10;99.90;;;;;;2614291;54;19956;-67
2023/04/01 09:54:10;;;;;;;;;;;12.20;99.90;;;;;;2615580;54;20478;-66
2023/04/01 09:56:57;;;;;;;;;;;12.30;99.90;;;;;;2618172;46;20052;-66
2023/04/01 09:59:41;;;;;;;;;;;12.30;99.90;;;;;;2616655;54;19946;-65
2023/04/01 10:02:22;;;;;;;;;;;12.40;99.90;;;;;;2620287;54;19938;-63
2023/04/01 10:05:19;;;;;;;;;;;12.40;99.90;;;;;;2618457;51;20460;-64
2023/04/01 10:08:05;;;;;;;;;;;12.40;99.90;;;;;;2620088;54;19951;-64
2023/04/01 10:10:49;;;;;;;;;;;12.40;99.90;;;;;;2618501;54;19962;-65
2023/04/01 10:13:33;;;;;;;;;;;12.50;99.90;;;;;;2618631;47;19946;-68
2023/04/01 10:16:13;;;;;;;;;;;12.50;99.90;;;;;;2628578;54;19935;-70
2023/04/01 10:19:03;;;;;;;;;;;12.60;99.90;;;;;;2624789;54;19946;-67
2023/04/01 10:21:49;;;;;;;;;;;12.60;99.90;;;;;;2618303;54;19950;-69
2023/04/01 10:24:32;;;;;;;;;;;12.60;99.90;;;;;;2618302;47;19939;-68
2023/04/01 10:27:13;;;;;;;;;;;12.60;99.90;;;;;;2616877;47;19999;-67
2023/04/01 10:29:54;;;;;;;;;;;12.60;99.90;;;;;;2618207;54;20431;-66
2023/04/01 10:32:39;;;;;;;;;;;12.60;99.90;;;;;;2617418;54;20510;-67
2023/04/01 10:35:23;;;;;;;;;;;12.60;99.90;;;;;;2617757;54;20083;-61
2023/04/01 10:38:11;;;;;;;;;;;12.70;99.90;;;;;;2618151;47;19954;-61
2023/04/01 10:40:52;;;;;;;;;;;12.60;99.90;;;;;;2619493;47;20440;-60
2023/04/01 10:43:34;;;;;;;;;;;12.60;99.90;;;;;;2618312;54;19955;-64
2023/04/01 10:46:12;;;;;;;;;;;12.60;99.90;;;;;;2619172;54;19947;-60
2023/04/01 10:48:58;;;;;;;;;;;12.70;99.90;;;;;;2617942;47;19990;-61
2023/04/01 10:51:45;;;;;;;;;;;12.80;99.90;;;;;;2617642;54;19950;-60
2023/04/01 10:54:20;;;;;;;;;;;12.80;99.90;;;;;;2617679;47;19998;-60
2023/04/01 10:56:56;;;;;;;;;;;12.80;99.90;;;;;;2617492;54;20011;-60
2023/04/01 10:59:47;;;;;;;;;;;12.90;99.90;;;;;;2618502;39;20355;-60
2023/04/01 11:02:32;;;;;;;;;;;13.10;99.90;;;;;;2619032;54;19939;-60
2023/04/01 11:05:17;;;;;;;;;;;13.10;99.90;;;;;;2618704;39;19958;-61
2023/04/01 11:08:03;;;;;;;;;;;13.20;99.90;;;;;;2617656;54;19946;-71
2023/04/01 11:10:56;;;;;;;;;;;13.20;99.90;;;;;;2617645;54;19961;-69
2023/04/01 11:13:41;;;;;;;;;;;13.30;99.90;;;;;;2617337;47;19958;-69
2023/04/01 11:16:26;;;;;;;;;;;13.20;99.90;;;;;;2616916;54;19955;-71
2023/04/01 11:19:13;;;;;;;;;;;13.20;99.90;;;;;;2617312;47;19964;-69
2023/04/01 11:21:49;;;;;;;;;;;13.30;99.90;;;;;;2617371;54;19946;-69
2023/04/01 11:24:28;;;;;;;;;;;13.20;99.90;;;;;;2616258;54;19958;-68
2023/04/01 11:27:07;;;;;;;;;;;13.20;99.90;;;;;;2616692;54;19953;-67
2023/04/01 11:29:47;;;;;;;;;;;13.20;99.90;;;;;;2620179;47;19954;-69
2023/04/01 11:32:36;;;;;;;;;;;13.20;99.90;;;;;;2628984;47;19974;-70
2023/04/01 11:35:22;;;;;;;;;;;13.10;99.90;;;;;;2623145;54;19947;-68
2023/04/01 11:37:56;;;;;;;;;;;13.20;99.90;;;;;;2629579;54;19946;-70
2023/04/01 11:40:31;;;;;;;;;;;13.20;99.90;;;;;;2627592;47;19971;-71
2023/04/01 11:43:03;;;;;;;;;;;13.10;99.90;;;;;;2621596;54;19969;-70
2023/04/01 11:45:37;;;;;;;;;;;13.20;99.90;;;;;;2618597;54;19958;-69
2023/04/01 11:48:14;;;;;;;;;;;13.10;99.90;;;;;;2619227;47;19943;-70
2023/04/01 11:50:55;;;;;;;;;;;13.10;99.90;;;;;;2617860;54;19963;-69
2023/04/01 11:53:38;;;;;;;;;;;13.20;99.90;;;;;;2618449;47;19970;-70
2023/04/01 11:56:16;;;;;;;;;;;13.20;99.90;;;;;;2617755;54;19942;-70
2023/04/01 11:59:00;;;;;;;;;;;13.20;99.90;;;;;;2618973;54;20443;-70
2023/04/01 12:01:37;;;;;;;;;;;13.20;99.90;;;;;;2620733;54;19991;-69
2023/04/01 12:04:22;;;;;;;;;;;13.20;99.90;;;;;;2618574;54;19943;-69
2023/04/01 12:06:56;;;;;;;;;;;13.20;99.90;;;;;;2620353;54;19947;-69
2023/04/01 12:09:30;;;;;;;;;;;13.20;99.90;;;;;;2619231;54;19953;-70
2023/04/01 12:12:05;;;;;;;;;;;13.20;99.90;;;;;;2617531;54;19950;-69
2023/04/01 12:14:39;;;;;;;;;;;13.20;99.90;;;;;;2618601;54;20442;-68
2023/04/01 12:17:11;;;;;;;;;;;13.20;99.90;;;;;;2618016;54;20451;-68
2023/04/01 12:19:46;;;;;;;;;;;13.20;99.90;;;;;;2617526;47;19976;-69
2023/04/01 12:22:25;;;;;;;;;;;13.20;99.90;;;;;;2618486;54;19942;-68
2023/04/01 12:24:58;;;;;;;;;;;13.20;99.90;;;;;;2618314;47;19938;-66
2023/04/01 12:27:40;;;;;;;;;;;13.20;99.90;;;;;;2618102;54;20439;-69
2023/04/01 12:30:19;;;;;;;;;;;13.20;99.90;;;;;;2617930;54;20510;-68
2023/04/01 12:32:52;;;;;;;;;;;13.20;99.90;;;;;;2618772;54;19946;-69
